Time;durP1;ratioP1;P1;durP2;ratioP2;P2;SDS_P1;SDS_P2;PMS_P1;PMS_P2;Temp;Humidity;BMP_temperature;BMP_pressure;BME280_temperature;BME280_humidity;BME280_pressure;Samples;Min_cycle;Max_cycle;Signal;HPM_P1;HPM_P2
2021/09/17 00:01:43;;;;;;;1.40;0.20;;;;;;;;;;5027681;28;20084;-70
2021/09/17 00:04:10;;;;;;;0.68;0.30;;;;;;;;;;5028436;28;20033;-69
2021/09/17 00:06:37;;;;;;;3.05;0.22;;;;;;;;;;5029017;28;21495;-69
2021/09/17 00:09:04;;;;;;;1.77;0.20;;;;;;;;;;5028488;28;20021;-69
2021/09/17 00:11:31;;;;;;;1.77;0.20;;;;;;;;;;5028438;28;20018;-69
2021/09/17 00:14:00;;;;;;;1.05;0.20;;;;;;;;;;5027825;28;20029;-70
2021/09/17 00:16:27;;;;;;;1.75;0.30;;;;;;;;;;5023602;28;20029;-70
2021/09/17 00:18:55;;;;;;;1.77;0.20;;;;;;;;;;5019236;28;20044;-69
2021/09/17 00:21:22;;;;;;;0.68;0.20;;;;;;;;;;5021871;28;20045;-68
2021/09/17 00:23:49;;;;;;;2.10;0.20;;;;;;;;;;5027576;28;20435;-68
2021/09/17 00:26:16;;;;;;;2.88;0.30;;;;;;;;;;5031056;28;20021;-68
2021/09/17 00:28:43;;;;;;;4.35;0.77;;;;;;;;;;5028525;28;20055;-68
2021/09/17 00:31:10;;;;;;;1.70;0.43;;;;;;;;;;5029036;28;20088;-68
2021/09/17 00:33:37;;;;;;;2.70;0.95;;;;;;;;;;5042081;28;20041;-68
2021/09/17 00:36:04;;;;;;;2.80;0.82;;;;;;;;;;5028859;28;20125;-68
2021/09/17 00:38:31;;;;;;;1.98;0.55;;;;;;;;;;5030378;28;20033;-68
2021/09/17 00:40:59;;;;;;;3.13;0.40;;;;;;;;;;5031539;28;20025;-68
2021/09/17 00:43:26;;;;;;;1.33;0.50;;;;;;;;;;5027928;28;20021;-68
2021/09/17 00:45:53;;;;;;;2.20;0.50;;;;;;;;;;5029430;28;20445;-68
2021/09/17 00:48:20;;;;;;;1.98;0.40;;;;;;;;;;5028231;28;20116;-68
2021/09/17 00:50:47;;;;;;;1.55;0.45;;;;;;;;;;5029305;28;20044;-68
2021/09/17 00:53:14;;;;;;;1.70;0.20;;;;;;;;;;5026315;28;20024;-68
2021/09/17 00:55:41;;;;;;;2.60;0.20;;;;;;;;;;5029303;28;20033;-68
2021/09/17 00:58:09;;;;;;;2.10;0.20;;;;;;;;;;5027456;28;20041;-68
2021/09/17 01:00:36;;;;;;;2.15;0.47;;;;;;;;;;5027438;28;20025;-68
2021/09/17 01:03:03;;;;;;;2.40;0.70;;;;;;;;;;5028012;28;20024;-68
2021/09/17 01:05:30;;;;;;;2.42;0.60;;;;;;;;;;5028375;28;20061;-67
2021/09/17 01:07:57;;;;;;;4.30;1.08;;;;;;;;;;5025278;28;20036;-68
2021/09/17 01:10:25;;;;;;;3.05;0.60;;;;;;;;;;5027741;28;20020;-68
2021/09/17 01:12:52;;;;;;;2.28;0.38;;;;;;;;;;5029706;28;20775;-68
2021/09/17 01:15:19;;;;;;;0.68;0.30;;;;;;;;;;5025625;28;20033;-68
2021/09/17 01:17:46;;;;;;;1.40;0.30;;;;;;;;;;5027209;28;20037;-67
2021/09/17 01:20:16;;;;;;;3.63;0.60;;;;;;;;;;5030064;28;20406;-68
2021/09/17 01:22:44;;;;;;;1.15;0.38;;;;;;;;;;5021653;28;20014;-69
2021/09/17 01:25:12;;;;;;;2.75;0.50;;;;;;;;;;5031189;28;20033;-68
2021/09/17 01:27:41;;;;;;;1.45;0.40;;;;;;;;;;5032033;28;20028;-68
2021/09/17 01:30:09;;;;;;;4.32;0.80;;;;;;;;;;5017494;28;20026;-68
2021/09/17 01:32:41;;;;;;;1.40;0.40;;;;;;;;;;5033492;28;20093;-67
2021/09/17 01:35:09;;;;;;;2.17;0.35;;;;;;;;;;5029524;28;20080;-68
2021/09/17 01:37:37;;;;;;;1.30;0.60;;;;;;;;;;5033863;28;20048;-67
2021/09/17 01:40:05;;;;;;;2.58;0.30;;;;;;;;;;5035082;28;20108;-67
2021/09/17 01:42:32;;;;;;;1.05;0.43;;;;;;;;;;5033683;28;20021;-67
2021/09/17 01:44:59;;;;;;;1.83;0.60;;;;;;;;;;5032561;28;20036;-68
2021/09/17 01:47:26;;;;;;;2.25;0.40;;;;;;;;;;5034621;28;20032;-67
2021/09/17 01:49:53;;;;;;;0.65;0.35;;;;;;;;;;5031802;28;20029;-67
2021/09/17 01:52:20;;;;;;;2.40;0.60;;;;;;;;;;5024984;28;20034;-68
2021/09/17 01:54:47;;;;;;;5.43;1.05;;;;;;;;;;5032503;28;20049;-67
2021/09/17 01:57:15;;;;;;;8.38;0.68;;;;;;;;;;5031916;28;20032;-67
2021/09/17 01:59:42;;;;;;;3.85;0.85;;;;;;;;;;5032810;28;20030;-67
2021/09/17 02:02:09;;;;;;;4.28;0.57;;;;;;;;;;5034478;28;20024;-67
2021/09/17 02:04:36;;;;;;;4.43;1.00;;;;;;;;;;5030524;28;20376;-67
2021/09/17 02:07:04;;;;;;;9.40;0.75;;;;;;;;;;5030696;28;20029;-67
2021/09/17 02:09:31;;;;;;;7.40;1.00;;;;;;;;;;5033109;28;20104;-67
2021/09/17 02:11:58;;;;;;;4.03;0.68;;;;;;;;;;5034695;28;20163;-67
2021/09/17 02:14:25;;;;;;;2.40;0.80;;;;;;;;;;5028125;28;20080;-67
2021/09/17 02:16:52;;;;;;;5.85;0.98;;;;;;;;;;5039090;28;20033;-67
2021/09/17 02:19:19;;;;;;;5.55;0.63;;;;;;;;;;5033485;28;20087;-67
2021/09/17 02:21:49;;;;;;;3.70;0.45;;;;;;;;;;5032766;28;20052;-66
2021/09/17 02:24:20;;;;;;;4.65;0.75;;;;;;;;;;5032483;28;20036;-66
2021/09/17 02:26:47;;;;;;;5.78;0.50;;;;;;;;;;5031550;28;20037;-67
2021/09/17 02:29:14;;;;;;;19.95;2.05;;;;;;;;;;5037633;28;20021;-66
2021/09/17 02:31:41;;;;;;;13.93;5.97;;;;;;;;;;5044742;28;20040;-67
2021/09/17 02:34:08;;;;;;;4.70;1.25;;;;;;;;;;5031294;28;20029;-68
2021/09/17 02:36:36;;;;;;;7.95;0.70;;;;;;;;;;5051098;28;20025;-68
2021/09/17 02:39:03;;;;;;;4.65;0.98;;;;;;;;;;5033091;28;20037;-67
2021/09/17 02:41:30;;;;;;;4.60;0.73;;;;;;;;;;5034801;28;20041;-68
2021/09/17 02:44:01;;;;;;;6.70;1.38;;;;;;;;;;5029889;28;20033;-68
2021/09/17 02:46:28;;;;;;;4.90;0.80;;;;;;;;;;5033939;28;20060;-68
2021/09/17 02:48:55;;;;;;;6.80;1.02;;;;;;;;;;5033334;28;20021;-67
2021/09/17 02:51:22;;;;;;;4.53;0.70;;;;;;;;;;5030819;28;20048;-66
2021/09/17 02:53:49;;;;;;;5.00;0.80;;;;;;;;;;5028516;28;20385;-67
2021/09/17 02:56:17;;;;;;;2.72;0.60;;;;;;;;;;5030980;28;20018;-67
2021/09/17 02:58:44;;;;;;;5.80;0.90;;;;;;;;;;5031161;28;20423;-68
2021/09/17 03:01:11;;;;;;;6.03;0.73;;;;;;;;;;5028093;28;20023;-67
2021/09/17 03:03:38;;;;;;;5.40;0.50;;;;;;;;;;5030225;28;20020;-68
2021/09/17 03:06:05;;;;;;;6.60;0.63;;;;;;;;;;5033306;28;20052;-67
2021/09/17 03:08:32;;;;;;;6.30;1.00;;;;;;;;;;5031996;28;20036;-66
2021/09/17 03:10:59;;;;;;;8.43;0.93;;;;;;;;;;5031860;28;20033;-66
2021/09/17 03:13:28;;;;;;;2.50;0.88;;;;;;;;;;5030677;28;20071;-67
2021/09/17 03:15:55;;;;;;;3.50;0.70;;;;;;;;;;5030817;28;20036;-67
2021/09/17 03:18:22;;;;;;;4.03;0.57;;;;;;;;;;5028271;28;20513;-68
2021/09/17 03:20:51;;;;;;;5.85;0.82;;;;;;;;;;5032915;28;20050;-67
2021/09/17 03:23:18;;;;;;;4.18;1.02;;;;;;;;;;5031707;28;20068;-68
2021/09/17 03:25:45;;;;;;;7.20;0.85;;;;;;;;;;5030207;28;20109;-68
2021/09/17 03:28:13;;;;;;;5.07;0.80;;;;;;;;;;5028311;28;20544;-68
2021/09/17 03:30:40;;;;;;;6.03;0.70;;;;;;;;;;5030532;28;20052;-69
2021/09/17 03:33:09;;;;;;;3.65;0.60;;;;;;;;;;5029984;28;20497;-71
2021/09/17 03:35:37;;;;;;;4.55;0.75;;;;;;;;;;5032968;28;20108;-69
2021/09/17 03:38:05;;;;;;;3.97;0.50;;;;;;;;;;5030756;28;20079;-69
2021/09/17 03:40:33;;;;;;;4.65;0.70;;;;;;;;;;5028251;28;20025;-69
2021/09/17 03:43:01;;;;;;;6.18;0.82;;;;;;;;;;5020546;28;20037;-70
2021/09/17 03:45:28;;;;;;;4.00;0.55;;;;;;;;;;5030306;28;20537;-69
2021/09/17 03:47:55;;;;;;;3.22;0.40;;;;;;;;;;5029411;28;20545;-70
2021/09/17 03:50:22;;;;;;;4.25;0.40;;;;;;;;;;5030961;28;20029;-69
2021/09/17 03:52:49;;;;;;;3.17;0.77;;;;;;;;;;5028293;28;20047;-69
2021/09/17 03:55:19;;;;;;;4.50;0.63;;;;;;;;;;5029417;28;20034;-71
2021/09/17 03:57:46;;;;;;;6.72;1.00;;;;;;;;;;5030394;28;20037;-71
2021/09/17 04:00:14;;;;;;;3.30;0.60;;;;;;;;;;5030820;28;20033;-72
2021/09/17 04:02:41;;;;;;;6.30;0.77;;;;;;;;;;5029954;28;20116;-69
2021/09/17 04:05:09;;;;;;;5.47;1.05;;;;;;;;;;5028603;28;20024;-70
2021/09/17 04:07:40;;;;;;;2.60;0.93;;;;;;;;;;5015781;28;20029;-70
2021/09/17 04:10:07;;;;;;;7.28;1.05;;;;;;;;;;5023111;28;20030;-72
2021/09/17 04:12:35;;;;;;;3.85;0.40;;;;;;;;;;5029938;28;20022;-71
2021/09/17 04:15:02;;;;;;;3.45;0.80;;;;;;;;;;5028988;28;20025;-71
2021/09/17 04:17:32;;;;;;;3.30;0.50;;;;;;;;;;5042807;28;20593;-69
2021/09/17 04:19:59;;;;;;;4.13;0.90;;;;;;;;;;5032203;28;20032;-68
2021/09/17 04:22:31;;;;;;;6.38;1.02;;;;;;;;;;5027880;28;20081;-67
2021/09/17 04:24:58;;;;;;;5.57;0.60;;;;;;;;;;5031396;28;20021;-69
2021/09/17 04:27:25;;;;;;;3.28;0.40;;;;;;;;;;5031507;28;20105;-69
2021/09/17 04:29:53;;;;;;;4.93;0.68;;;;;;;;;;5028214;28;20087;-69
2021/09/17 04:32:21;;;;;;;4.05;0.88;;;;;;;;;;5029095;28;20052;-68
2021/09/17 04:34:48;;;;;;;4.32;1.25;;;;;;;;;;5025146;28;20663;-69
2021/09/17 04:37:16;;;;;;;4.68;0.90;;;;;;;;;;5011334;28;20072;-69
2021/09/17 04:39:43;;;;;;;3.40;0.80;;;;;;;;;;5028875;28;20026;-69
2021/09/17 04:42:10;;;;;;;3.22;0.73;;;;;;;;;;5032506;28;20025;-69
2021/09/17 04:44:38;;;;;;;4.72;0.90;;;;;;;;;;5028885;28;20029;-69
2021/09/17 04:47:05;;;;;;;2.78;0.80;;;;;;;;;;5027988;28;20364;-69
2021/09/17 04:49:32;;;;;;;3.13;0.80;;;;;;;;;;5028214;28;20389;-70
2021/09/17 04:52:00;;;;;;;5.22;1.02;;;;;;;;;;5030252;28;20483;-70
2021/09/17 04:54:27;;;;;;;4.15;0.75;;;;;;;;;;5025847;28;20026;-71
2021/09/17 04:56:54;;;;;;;4.40;1.20;;;;;;;;;;5029898;28;20343;-70
2021/09/17 04:59:21;;;;;;;3.65;0.70;;;;;;;;;;5029589;28;20033;-70
2021/09/17 05:01:48;;;;;;;4.80;0.90;;;;;;;;;;5017726;28;20030;-70
2021/09/17 05:04:15;;;;;;;4.82;1.10;;;;;;;;;;5032452;28;20021;-71
2021/09/17 05:06:42;;;;;;;2.15;0.65;;;;;;;;;;5034916;28;20075;-71
2021/09/17 05:09:10;;;;;;;6.63;1.17;;;;;;;;;;5033984;28;20033;-70
2021/09/17 05:11:37;;;;;;;4.95;0.52;;;;;;;;;;5035263;28;20153;-70
2021/09/17 05:14:04;;;;;;;2.78;0.90;;;;;;;;;;5030530;28;20827;-71
2021/09/17 05:16:32;;;;;;;4.18;0.70;;;;;;;;;;5025644;28;20049;-71
2021/09/17 05:19:02;;;;;;;5.10;1.05;;;;;;;;;;5030642;28;20395;-71
2021/09/17 05:21:30;;;;;;;3.85;0.88;;;;;;;;;;5029982;28;20048;-72
2021/09/17 05:23:57;;;;;;;4.53;1.10;;;;;;;;;;5031501;28;20037;-72
2021/09/17 05:26:24;;;;;;;3.47;0.88;;;;;;;;;;5030289;28;20053;-72
2021/09/17 05:28:51;;;;;;;3.75;0.90;;;;;;;;;;5030756;28;20115;-72
2021/09/17 05:31:18;;;;;;;6.60;0.85;;;;;;;;;;5030654;28;20083;-72
2021/09/17 05:33:45;;;;;;;4.38;0.85;;;;;;;;;;5029890;28;20022;-71
2021/09/17 05:36:12;;;;;;;3.40;0.88;;;;;;;;;;5030745;28;20029;-72
2021/09/17 05:38:40;;;;;;;4.03;0.90;;;;;;;;;;5029624;28;20025;-72
2021/09/17 05:41:07;;;;;;;4.35;0.60;;;;;;;;;;5031886;28;20105;-72
2021/09/17 05:43:34;;;;;;;5.35;1.25;;;;;;;;;;5029108;28;20124;-72
2021/09/17 05:46:01;;;;;;;4.45;0.80;;;;;;;;;;5032154;28;20029;-73
2021/09/17 05:48:28;;;;;;;7.70;1.02;;;;;;;;;;5029833;28;20032;-71
2021/09/17 05:50:55;;;;;;;2.97;0.73;;;;;;;;;;5031820;28;20039;-71
2021/09/17 05:53:22;;;;;;;4.50;1.02;;;;;;;;;;5029003;28;20033;-71
2021/09/17 05:55:49;;;;;;;7.03;1.38;;;;;;;;;;5031769;28;20032;-72
2021/09/17 05:58:17;;;;;;;6.03;1.33;;;;;;;;;;5030346;28;20026;-71
2021/09/17 06:00:44;;;;;;;6.43;0.85;;;;;;;;;;5030752;28;20144;-72
2021/09/17 06:03:11;;;;;;;4.40;0.80;;;;;;;;;;5031822;28;20443;-69
2021/09/17 06:05:38;;;;;;;7.75;1.48;;;;;;;;;;5030646;28;20017;-70
2021/09/17 06:08:05;;;;;;;5.97;0.90;;;;;;;;;;5029900;28;20565;-70
2021/09/17 06:10:32;;;;;;;7.90;1.00;;;;;;;;;;5028140;28;20104;-70
2021/09/17 06:12:59;;;;;;;7.18;1.70;;;;;;;;;;5029526;28;21805;-71
2021/09/17 06:15:27;;;;;;;2.95;1.00;;;;;;;;;;5030398;28;20037;-72
2021/09/17 06:17:54;;;;;;;7.60;1.10;;;;;;;;;;5030267;28;20121;-72
2021/09/17 06:20:21;;;;;;;4.85;0.82;;;;;;;;;;5029005;28;20513;-72
2021/09/17 06:22:53;;;;;;;5.68;0.90;;;;;;;;;;5028028;28;20026;-72
2021/09/17 06:25:21;;;;;;;3.10;0.82;;;;;;;;;;5035705;28;20022;-71
2021/09/17 06:27:51;;;;;;;5.03;0.82;;;;;;;;;;5026815;28;20048;-72
2021/09/17 06:30:20;;;;;;;5.00;1.00;;;;;;;;;;5035347;28;20029;-70
2021/09/17 06:32:48;;;;;;;5.00;1.20;;;;;;;;;;5030436;28;20028;-71
2021/09/17 06:35:15;;;;;;;6.15;1.58;;;;;;;;;;5049040;28;20029;-72
2021/09/17 06:37:49;;;;;;;4.82;0.90;;;;;;;;;;5046169;28;20041;-70
2021/09/17 06:40:16;;;;;;;9.75;0.98;;;;;;;;;;5032752;28;20025;-71
2021/09/17 06:42:44;;;;;;;5.38;1.10;;;;;;;;;;5033648;28;20470;-70
2021/09/17 06:45:11;;;;;;;8.52;1.25;;;;;;;;;;5024585;28;20487;-71
2021/09/17 06:47:55;;;;;;;7.50;0.90;;;;;;;;;;5029561;28;20036;-71
2021/09/17 06:50:24;;;;;;;5.88;1.73;;;;;;;;;;5032621;28;20374;-70
2021/09/17 06:52:53;;;;;;;7.18;1.52;;;;;;;;;;5029753;28;20081;-71
2021/09/17 06:55:30;;;;;;;7.90;1.02;;;;;;;;;;5032639;28;20410;-72
2021/09/17 06:57:59;;;;;;;6.22;1.50;;;;;;;;;;5027432;28;20105;-72
2021/09/17 07:00:27;;;;;;;4.93;1.20;;;;;;;;;;5033112;28;20049;-74
2021/09/17 07:02:54;;;;;;;8.50;1.02;;;;;;;;;;5025824;28;20025;-71
2021/09/17 07:05:22;;;;;;;5.78;0.82;;;;;;;;;;5033113;28;20026;-72
2021/09/17 07:07:50;;;;;;;10.07;2.00;;;;;;;;;;5029344;28;20030;-70
2021/09/17 07:10:18;;;;;;;7.93;1.20;;;;;;;;;;5025848;28;20124;-71
2021/09/17 07:12:45;;;;;;;6.57;1.42;;;;;;;;;;5030163;28;20732;-70
2021/09/17 07:15:13;;;;;;;10.30;1.48;;;;;;;;;;5027374;28;20025;-70
2021/09/17 07:17:41;;;;;;;8.40;2.05;;;;;;;;;;5027904;28;20401;-71
2021/09/17 07:20:09;;;;;;;4.18;1.08;;;;;;;;;;5026238;28;20048;-71
2021/09/17 07:22:36;;;;;;;5.30;1.25;;;;;;;;;;5027670;28;20044;-71
2021/09/17 07:25:04;;;;;;;5.78;1.10;;;;;;;;;;5030415;28;20025;-72
2021/09/17 07:27:32;;;;;;;6.63;1.55;;;;;;;;;;5029569;28;20037;-71
2021/09/17 07:29:59;;;;;;;5.15;1.60;;;;;;;;;;5031249;28;20029;-72
2021/09/17 07:32:26;;;;;;;6.10;1.10;;;;;;;;;;5030742;28;20501;-71
2021/09/17 07:34:54;;;;;;;7.05;1.33;;;;;;;;;;5030309;28;20490;-72
2021/09/17 07:37:22;;;;;;;8.20;1.83;;;;;;;;;;5027701;28;20017;-71
2021/09/17 07:39:49;;;;;;;11.32;1.80;;;;;;;;;;5030496;28;20420;-72
2021/09/17 07:42:17;;;;;;;7.38;1.50;;;;;;;;;;5033280;28;20504;-72
2021/09/17 07:44:44;;;;;;;8.45;2.35;;;;;;;;;;5028598;28;20022;-71
2021/09/17 07:47:11;;;;;;;7.82;1.80;;;;;;;;;;5031495;28;20030;-71
2021/09/17 07:49:38;;;;;;;12.35;2.35;;;;;;;;;;5029891;28;20025;-71
2021/09/17 07:52:06;;;;;;;7.70;1.20;;;;;;;;;;5031290;28;20053;-72
2021/09/17 07:54:33;;;;;;;9.32;1.38;;;;;;;;;;5026966;28;20030;-74
2021/09/17 07:57:00;;;;;;;7.18;1.58;;;;;;;;;;5026829;28;20025;-73
2021/09/17 07:59:27;;;;;;;7.40;1.77;;;;;;;;;;5028773;28;20029;-75
2021/09/17 08:01:54;;;;;;;5.68;1.52;;;;;;;;;;5031983;28;20018;-74
2021/09/17 08:04:21;;;;;;;7.35;1.70;;;;;;;;;;5030860;28;20388;-74
2021/09/17 08:06:49;;;;;;;5.68;1.67;;;;;;;;;;5031518;28;20458;-73
2021/09/17 08:09:16;;;;;;;7.13;2.10;;;;;;;;;;5026218;28;20029;-74
2021/09/17 08:11:43;;;;;;;10.68;1.95;;;;;;;;;;5031731;28;20328;-75
2021/09/17 08:14:10;;;;;;;4.97;1.00;;;;;;;;;;5027331;28;20064;-75
2021/09/17 08:16:38;;;;;;;7.43;1.73;;;;;;;;;;5029307;28;20105;-74
2021/09/17 08:19:05;;;;;;;7.53;1.55;;;;;;;;;;5027162;28;20041;-74
2021/09/17 08:21:32;;;;;;;8.90;1.52;;;;;;;;;;5029316;28;20095;-74
2021/09/17 08:23:59;;;;;;;9.98;2.33;;;;;;;;;;5028405;28;20018;-74
2021/09/17 08:26:26;;;;;;;6.28;1.70;;;;;;;;;;5031976;28;20044;-74
2021/09/17 08:28:53;;;;;;;8.55;2.10;;;;;;;;;;5029848;28;20420;-74
2021/09/17 08:31:21;;;;;;;11.70;2.67;;;;;;;;;;5029549;28;20109;-74
2021/09/17 08:33:48;;;;;;;7.07;2.05;;;;;;;;;;5028334;28;20041;-74
2021/09/17 08:36:15;;;;;;;9.50;2.60;;;;;;;;;;5032057;28;20018;-74
2021/09/17 08:38:43;;;;;;;8.73;2.20;;;;;;;;;;5029591;28;20034;-74
2021/09/17 08:41:10;;;;;;;9.55;1.80;;;;;;;;;;5031820;28;20053;-74
2021/09/17 08:43:37;;;;;;;12.27;2.15;;;;;;;;;;5029929;28;20021;-74
2021/09/17 08:46:05;;;;;;;7.68;2.00;;;;;;;;;;5031499;28;20425;-74
2021/09/17 08:48:32;;;;;;;12.13;1.95;;;;;;;;;;5026531;28;20037;-74
2021/09/17 08:50:59;;;;;;;12.82;2.83;;;;;;;;;;5022447;28;20021;-74
2021/09/17 08:53:27;;;;;;;5.38;1.90;;;;;;;;;;5028543;28;20021;-76
2021/09/17 08:55:54;;;;;;;8.85;2.10;;;;;;;;;;5030392;28;20068;-74
2021/09/17 08:58:21;;;;;;;12.52;2.13;;;;;;;;;;5028833;28;20087;-72
2021/09/17 09:00:48;;;;;;;14.35;2.30;;;;;;;;;;5030716;28;20036;-74
2021/09/17 09:03:32;;;;;;;10.25;1.50;;;;;;;;;;5026901;28;20026;-74
2021/09/17 09:06:14;;;;;;;7.17;1.97;;;;;;;;;;5030401;28;20494;-73
2021/09/17 09:08:41;;;;;;;11.32;2.70;;;;;;;;;;5028085;28;20024;-74
2021/09/17 09:11:18;;;;;;;9.50;2.13;;;;;;;;;;5029136;28;20044;-73
2021/09/17 09:14:11;;;;;;;11.02;2.53;;;;;;;;;;5021491;28;20073;-73
2021/09/17 09:16:44;;;;;;;8.32;2.00;;;;;;;;;;5024395;28;20468;-74
2021/09/17 09:19:17;;;;;;;8.90;2.05;;;;;;;;;;5028786;28;20033;-74
2021/09/17 09:21:44;;;;;;;10.75;2.45;;;;;;;;;;5027629;28;20401;-75
2021/09/17 09:24:11;;;;;;;9.45;2.33;;;;;;;;;;5029724;28;20032;-73
2021/09/17 09:26:39;;;;;;;11.55;2.60;;;;;;;;;;5031363;28;20049;-73
2021/09/17 09:29:07;;;;;;;9.27;2.53;;;;;;;;;;5030496;28;20056;-74
2021/09/17 09:31:44;;;;;;;13.55;2.70;;;;;;;;;;5030960;28;20018;-74
2021/09/17 09:34:11;;;;;;;9.60;2.03;;;;;;;;;;5029434;28;20101;-74
2021/09/17 09:36:38;;;;;;;12.60;2.40;;;;;;;;;;5031546;28;20411;-72
2021/09/17 09:39:05;;;;;;;8.98;2.95;;;;;;;;;;5029355;28;20453;-73
2021/09/17 09:41:34;;;;;;;10.50;3.53;;;;;;;;;;5030822;28;20058;-73
2021/09/17 09:44:01;;;;;;;9.93;3.55;;;;;;;;;;5029475;28;20386;-73
2021/09/17 09:46:47;;;;;;;9.88;2.55;;;;;;;;;;5030734;28;20494;-74
2021/09/17 09:49:22;;;;;;;13.82;3.22;;;;;;;;;;5031746;28;20037;-72
2021/09/17 09:51:57;;;;;;;7.88;2.28;;;;;;;;;;5034558;28;20032;-72
2021/09/17 09:54:25;;;;;;;8.73;1.98;;;;;;;;;;5033691;28;20018;-73
2021/09/17 09:56:54;;;;;;;11.23;2.25;;;;;;;;;;5033798;28;20108;-73
2021/09/17 09:59:24;;;;;;;8.90;3.05;;;;;;;;;;5031834;28;20022;-73
2021/09/17 10:01:51;;;;;;;12.60;2.53;;;;;;;;;;5033889;28;20049;-73
2021/09/17 10:04:21;;;;;;;13.43;2.00;;;;;;;;;;5031226;28;20053;-74
2021/09/17 10:06:48;;;;;;;11.48;2.08;;;;;;;;;;5034145;28;20025;-72
2021/09/17 10:09:15;;;;;;;7.07;2.25;;;;;;;;;;5032667;28;20026;-72
2021/09/17 10:11:42;;;;;;;12.48;2.15;;;;;;;;;;5033969;28;20433;-72
2021/09/17 10:14:12;;;;;;;12.93;2.13;;;;;;;;;;5030980;28;20068;-70
2021/09/17 10:16:42;;;;;;;16.52;3.13;;;;;;;;;;5033100;28;20569;-71
2021/09/17 10:19:09;;;;;;;9.13;1.83;;;;;;;;;;5027167;28;20517;-71
2021/09/17 10:21:49;;;;;;;9.40;1.83;;;;;;;;;;5034414;28;20045;-71
2021/09/17 10:24:28;;;;;;;7.20;1.88;;;;;;;;;;5030509;28;20360;-71
2021/09/17 10:27:02;;;;;;;8.68;2.30;;;;;;;;;;5028306;28;20029;-70
2021/09/17 10:29:39;;;;;;;9.67;2.27;;;;;;;;;;5030018;28;20099;-72
2021/09/17 10:32:07;;;;;;;9.85;1.83;;;;;;;;;;5031227;28;20025;-70
2021/09/17 10:34:39;;;;;;;8.90;2.10;;;;;;;;;;5029822;28;20033;-71
2021/09/17 10:37:07;;;;;;;4.70;1.40;;;;;;;;;;5029848;28;20371;-70
2021/09/17 10:39:34;;;;;;;7.25;1.30;;;;;;;;;;5027408;28;20040;-71
2021/09/17 10:42:12;;;;;;;5.20;1.38;;;;;;;;;;5030248;28;20509;-70
2021/09/17 10:44:57;;;;;;;5.85;2.17;;;;;;;;;;5033115;28;20017;-69
2021/09/17 10:47:42;;;;;;;5.82;1.50;;;;;;;;;;5031658;28;20025;-70
2021/09/17 10:50:11;;;;;;;6.22;1.75;;;;;;;;;;5033468;28;20025;-70
2021/09/17 10:52:39;;;;;;;11.27;2.50;;;;;;;;;;5033129;28;20025;-70
2021/09/17 10:55:07;;;;;;;5.63;1.45;;;;;;;;;;5033444;28;20391;-70
2021/09/17 10:57:47;;;;;;;9.30;1.85;;;;;;;;;;5031821;28;20062;-70
2021/09/17 11:00:34;;;;;;;7.38;2.25;;;;;;;;;;5033365;28;21153;-71
2021/09/17 11:03:01;;;;;;;7.47;2.17;;;;;;;;;;5032746;28;20032;-70
2021/09/17 11:05:28;;;;;;;8.10;1.60;;;;;;;;;;5032549;28;20057;-71
2021/09/17 11:07:56;;;;;;;7.95;1.60;;;;;;;;;;5033254;28;20033;-70
2021/09/17 11:10:25;;;;;;;8.65;2.28;;;;;;;;;;5033954;28;20021;-71
2021/09/17 11:13:04;;;;;;;9.27;1.75;;;;;;;;;;5032898;28;20025;-71
2021/09/17 11:15:32;;;;;;;8.73;1.98;;;;;;;;;;5033475;28;20033;-71
2021/09/17 11:18:02;;;;;;;7.95;1.60;;;;;;;;;;5032524;28;20095;-71
2021/09/17 11:20:31;;;;;;;7.70;1.73;;;;;;;;;;5033533;28;20061;-70
2021/09/17 11:23:01;;;;;;;5.53;1.52;;;;;;;;;;5030490;28;20090;-71
2021/09/17 11:25:32;;;;;;;10.20;1.95;;;;;;;;;;5032927;28;20049;-71
2021/09/17 11:27:59;;;;;;;5.10;1.98;;;;;;;;;;5032519;28;20042;-70
2021/09/17 11:30:28;;;;;;;7.80;1.73;;;;;;;;;;5032820;28;20022;-71
2021/09/17 11:32:55;;;;;;;4.90;1.63;;;;;;;;;;5033042;28;20029;-71
2021/09/17 11:35:22;;;;;;;8.02;1.95;;;;;;;;;;5030244;28;20029;-70
2021/09/17 11:37:50;;;;;;;9.02;2.20;;;;;;;;;;5033218;28;20048;-71
2021/09/17 11:40:17;;;;;;;7.10;1.90;;;;;;;;;;5031561;28;20490;-71
2021/09/17 11:42:45;;;;;;;4.80;1.77;;;;;;;;;;5032197;28;20034;-71
2021/09/17 11:45:16;;;;;;;8.02;2.15;;;;;;;;;;5030237;28;20502;-69
2021/09/17 11:47:47;;;;;;;7.45;1.92;;;;;;;;;;5031614;28;20458;-70
2021/09/17 11:50:15;;;;;;;7.03;1.35;;;;;;;;;;5032414;28;20172;-70
2021/09/17 11:52:47;;;;;;;6.78;1.70;;;;;;;;;;5026522;28;20404;-70
2021/09/17 11:55:16;;;;;;;5.00;1.55;;;;;;;;;;5032646;28;20021;-70
2021/09/17 11:57:44;;;;;;;5.25;1.77;;;;;;;;;;5032120;28;20371;-70
2021/09/17 12:00:14;;;;;;;7.18;1.35;;;;;;;;;;5032549;28;20026;-70
2021/09/17 12:02:42;;;;;;;6.45;1.60;;;;;;;;;;5031763;28;20029;-69
2021/09/17 12:05:14;;;;;;;7.03;1.25;;;;;;;;;;5031132;28;20402;-70
2021/09/17 12:07:41;;;;;;;5.68;1.77;;;;;;;;;;5031830;28;20029;-70
2021/09/17 12:10:17;;;;;;;5.47;1.65;;;;;;;;;;5031890;28;20017;-71
2021/09/17 12:12:46;;;;;;;9.00;1.67;;;;;;;;;;5030793;28;20798;-71
2021/09/17 12:15:14;;;;;;;6.57;1.65;;;;;;;;;;5031910;28;20024;-70
2021/09/17 12:17:59;;;;;;;6.18;1.48;;;;;;;;;;5040587;28;20017;-70
2021/09/17 12:20:43;;;;;;;4.57;1.55;;;;;;;;;;5041054;28;20052;-71
2021/09/17 12:23:12;;;;;;;4.65;1.52;;;;;;;;;;5022193;28;20394;-70
2021/09/17 12:25:40;;;;;;;7.55;1.67;;;;;;;;;;5029531;28;20021;-71
2021/09/17 12:28:08;;;;;;;5.85;1.40;;;;;;;;;;5024867;28;20075;-70
2021/09/17 12:30:37;;;;;;;6.45;1.20;;;;;;;;;;5030404;28;20104;-70
2021/09/17 12:33:20;;;;;;;4.93;1.42;;;;;;;;;;5030538;28;20041;-69
2021/09/17 12:35:49;;;;;;;3.25;1.25;;;;;;;;;;5030551;28;20051;-69
2021/09/17 12:38:16;;;;;;;5.13;1.67;;;;;;;;;;5033737;28;20636;-69
2021/09/17 12:40:45;;;;;;;7.57;1.60;;;;;;;;;;5030323;28;20065;-70
2021/09/17 12:43:16;;;;;;;6.30;1.30;;;;;;;;;;5031027;28;20030;-69
2021/09/17 12:45:56;;;;;;;5.03;1.88;;;;;;;;;;5029540;28;20083;-71
2021/09/17 12:48:26;;;;;;;7.70;1.67;;;;;;;;;;5026009;28;20075;-69
2021/09/17 12:50:53;;;;;;;4.45;1.95;;;;;;;;;;5030218;28;20033;-70
2021/09/17 12:53:22;;;;;;;3.10;1.27;;;;;;;;;;5030730;28;20672;-70
2021/09/17 12:56:03;;;;;;;6.15;1.60;;;;;;;;;;5030756;28;20029;-70
2021/09/17 12:58:33;;;;;;;4.88;1.63;;;;;;;;;;5030292;28;20064;-69
2021/09/17 13:01:00;;;;;;;3.78;1.42;;;;;;;;;;5030881;28;20026;-69
2021/09/17 13:03:28;;;;;;;4.65;1.70;;;;;;;;;;5030920;28;20052;-70
2021/09/17 13:05:57;;;;;;;6.50;2.53;;;;;;;;;;5031770;28;20029;-70
2021/09/17 13:08:24;;;;;;;5.28;1.85;;;;;;;;;;5030576;28;20029;-70
2021/09/17 13:10:52;;;;;;;5.20;1.48;;;;;;;;;;5021668;28;20113;-70
2021/09/17 13:13:20;;;;;;;3.80;1.40;;;;;;;;;;5031676;28;20017;-69
2021/09/17 13:15:47;;;;;;;3.92;1.23;;;;;;;;;;5030776;28;20030;-71
2021/09/17 13:18:14;;;;;;;7.32;1.77;;;;;;;;;;5029067;28;20025;-71
2021/09/17 13:20:42;;;;;;;4.45;1.40;;;;;;;;;;5032356;28;20050;-71
2021/09/17 13:23:10;;;;;;;5.10;1.60;;;;;;;;;;5033186;28;20021;-71
2021/09/17 13:25:38;;;;;;;4.88;1.88;;;;;;;;;;5034423;28;20017;-71
2021/09/17 13:28:08;;;;;;;4.00;1.83;;;;;;;;;;5034175;28;20028;-71
2021/09/17 13:30:37;;;;;;;3.67;1.48;;;;;;;;;;5034211;28;20021;-70
2021/09/17 13:33:08;;;;;;;4.15;1.67;;;;;;;;;;5032649;28;20014;-70
2021/09/17 13:35:38;;;;;;;7.30;1.45;;;;;;;;;;5027879;28;20025;-70
2021/09/17 13:38:05;;;;;;;4.43;2.20;;;;;;;;;;5033529;28;20030;-71
2021/09/17 13:40:33;;;;;;;10.57;2.20;;;;;;;;;;5032742;28;20018;-69
2021/09/17 13:43:00;;;;;;;5.82;2.15;;;;;;;;;;5032024;28;20152;-70
2021/09/17 13:45:28;;;;;;;4.20;2.13;;;;;;;;;;5033701;28;20100;-70
2021/09/17 13:47:55;;;;;;;6.78;2.10;;;;;;;;;;5034160;28;20112;-69
2021/09/17 13:50:23;;;;;;;5.80;2.25;;;;;;;;;;5034028;28;20151;-70
2021/09/17 13:52:53;;;;;;;10.20;2.53;;;;;;;;;;5033171;28;20033;-70
2021/09/17 13:55:23;;;;;;;5.38;2.80;;;;;;;;;;5033909;28;20024;-69
2021/09/17 13:57:51;;;;;;;5.80;2.28;;;;;;;;;;5033766;28;20421;-70
2021/09/17 14:00:20;;;;;;;4.68;2.35;;;;;;;;;;5034290;28;20459;-69
2021/09/17 14:02:48;;;;;;;6.80;2.72;;;;;;;;;;5034322;28;20056;-70
2021/09/17 14:05:15;;;;;;;6.70;2.50;;;;;;;;;;5034199;28;20488;-69
2021/09/17 14:07:43;;;;;;;4.78;2.00;;;;;;;;;;5034556;28;20112;-70
2021/09/17 14:10:10;;;;;;;6.18;2.45;;;;;;;;;;5033644;28;20064;-70
2021/09/17 14:12:37;;;;;;;3.25;1.75;;;;;;;;;;5033961;28;20025;-70
2021/09/17 14:15:05;;;;;;;3.03;2.22;;;;;;;;;;5033906;28;20091;-70
2021/09/17 14:17:32;;;;;;;7.43;2.33;;;;;;;;;;5021739;28;20030;-70
2021/09/17 14:19:59;;;;;;;6.15;2.05;;;;;;;;;;5028820;28;20036;-69
2021/09/17 14:22:26;;;;;;;3.35;1.75;;;;;;;;;;5033782;28;20379;-71
2021/09/17 14:24:53;;;;;;;5.28;1.92;;;;;;;;;;5033470;28;20394;-70
2021/09/17 14:27:20;;;;;;;6.80;2.30;;;;;;;;;;5032765;28;20025;-70
2021/09/17 14:29:49;;;;;;;3.60;1.70;;;;;;;;;;5032179;28;20533;-71
2021/09/17 14:32:16;;;;;;;4.57;1.90;;;;;;;;;;5033053;28;20491;-70
2021/09/17 14:34:44;;;;;;;4.65;2.05;;;;;;;;;;5032627;28;20014;-71
2021/09/17 14:37:11;;;;;;;5.50;1.90;;;;;;;;;;5033103;28;20501;-70
2021/09/17 14:39:38;;;;;;;2.67;1.67;;;;;;;;;;5030909;28;20033;-70
2021/09/17 14:42:05;;;;;;;4.88;2.13;;;;;;;;;;5032981;28;20018;-70
2021/09/17 14:44:32;;;;;;;3.38;1.60;;;;;;;;;;5033159;28;20540;-70
2021/09/17 14:46:59;;;;;;;5.63;1.92;;;;;;;;;;5033003;28;20037;-70
2021/09/17 14:49:26;;;;;;;4.55;1.70;;;;;;;;;;5032847;28;20025;-71